.
WxDataArchive / Data Records for 2010-04-10
2010-04-09 April 2010 2010-04-11

Data Records for Saturday, 10 April 2010

Time	Temp	Chill	HIndex	Humid	Dewpt	 Wind 	HiWind	WindDir	Rain 	Barom 
-----	----	-----	------	-----	-----	------	------	-------	-----	----- 
00:00	34.3	34.3	34.3	74	26.9	0	0	---	0.00	30.199 
00:05	34.1	34.1	34.1	76	27.3	0	0	---	0.00	30.199 
00:10	34.0	34.0	34.0	76	27.2	0	0	---	0.00	30.199 
00:15	33.8	33.8	33.8	77	27.4	0	0	---	0.00	30.203 
00:20	33.7	33.7	33.7	77	27.3	0	0	---	0.00	30.203 
00:25	33.5	33.5	33.5	78	27.4	0	0	---	0.00	30.203 
00:30	33.4	33.4	33.4	78	27.3	0	0	---	0.00	30.207 
00:35	33.2	33.2	33.2	78	27.1	0	0	---	0.00	30.207 
00:40	33.1	33.1	33.1	79	27.3	0	0	---	0.00	30.207 
00:45	32.9	32.9	32.9	80	27.4	0	0	---	0.00	30.215 
00:50	32.9	32.9	32.9	80	27.4	0	0	---	0.00	30.215 
00:55	32.8	32.8	32.8	81	27.6	0	0	---	0.00	30.215 
01:00	32.8	32.8	32.8	81	27.6	0	0	---	0.00	30.220 
01:05	32.7	32.7	32.7	81	27.5	0	0	---	0.00	30.220 
01:10	32.7	32.7	32.7	81	27.5	0	0	---	0.00	30.220 
01:15	32.5	32.5	32.5	82	27.6	0	0	---	0.00	30.226 
01:20	32.5	32.5	32.5	82	27.6	0	0	---	0.00	30.226 
01:25	32.4	32.4	32.4	82	27.5	0	0	---	0.00	30.226 
01:30	32.2	32.2	32.2	82	27.3	0	0	---	0.00	30.228 
01:35	32.1	32.1	32.1	82	27.2	0	0	---	0.00	30.228 
01:40	31.9	31.9	31.9	83	27.3	0	0	---	0.00	30.228 
01:45	31.8	31.8	31.8	83	27.2	0	0	---	0.00	30.231 
01:50	31.6	31.6	31.6	84	27.3	0	0	---	0.00	30.231 
01:55	31.6	31.6	31.6	84	27.3	0	0	---	0.00	30.231 
02:00	31.5	31.5	31.5	84	27.2	0	0	---	0.00	30.235 
02:05	31.5	31.5	31.5	84	27.2	0	0	---	0.00	30.235 
02:10	31.3	31.3	31.3	84	27.0	0	0	---	0.00	30.235 
02:15	31.2	31.2	31.2	84	26.9	0	0	---	0.00	30.236 
02:20	31.0	31.0	31.0	84	26.7	0	0	---	0.00	30.236 
02:25	30.9	30.9	30.9	85	26.9	0	0	---	0.00	30.236 
02:30	30.7	30.7	30.7	85	26.7	0	0	---	0.00	30.236 
02:35	30.7	30.7	30.7	85	26.7	0	0	---	0.00	30.236 
02:40	30.7	30.7	30.7	85	26.7	0	0	---	0.00	30.236 
02:45	30.7	30.7	30.7	86	27.0	0	0	---	0.00	30.239 
02:50	30.6	30.6	30.6	86	26.9	0	0	---	0.00	30.239 
02:55	30.6	30.6	30.6	86	26.9	0	0	---	0.00	30.239 
03:00	30.4	30.4	30.4	86	26.7	0	0	---	0.00	30.247 
03:05	30.4	30.4	30.4	86	26.7	0	0	---	0.00	30.247 
03:10	30.4	30.4	30.4	86	26.7	0	0	---	0.00	30.247 
03:15	30.4	30.4	30.4	87	27.0	0	0	---	0.00	30.247 
03:20	30.3	30.3	30.3	87	26.9	0	0	---	0.00	30.247 
03:25	30.1	30.1	30.1	87	26.7	0	0	---	0.00	30.247 
03:30	30.1	30.1	30.1	87	26.7	0	0	---	0.00	30.247 
03:35	30.0	30.0	30.0	87	26.6	0	0	---	0.00	30.247 
03:40	29.8	29.8	29.8	87	26.4	0	0	---	0.00	30.247 
03:45	29.7	29.7	29.7	87	26.3	0	0	---	0.00	30.248 
03:50	29.7	29.7	29.7	87	26.3	0	0	---	0.00	30.248 
03:55	29.5	29.5	29.5	87	26.1	0	0	---	0.00	30.248 
04:00	29.5	29.5	29.5	88	26.4	0	0	---	0.00	30.249 
04:05	29.4	29.4	29.4	88	26.3	0	0	---	0.00	30.249 
04:10	29.4	29.4	29.4	88	26.3	0	0	---	0.00	30.249 
04:15	29.3	29.3	29.3	88	26.2	0	0	---	0.00	30.254 
04:20	29.3	29.3	29.3	88	26.2	0	0	---	0.00	30.254 
04:25	29.1	29.1	29.1	88	26.0	0	0	---	0.00	30.254 
04:30	29.1	29.1	29.1	88	26.0	0	0	---	0.00	30.258 
04:35	29.1	29.1	29.1	88	26.0	0	0	---	0.00	30.258 
04:40	29.1	29.1	29.1	88	26.0	0	0	---	0.00	30.258 
04:45	29.1	29.1	29.1	89	26.3	0	0	---	0.00	30.259 
04:50	29.0	29.0	29.0	89	26.2	0	0	---	0.00	30.259 
04:55	29.0	29.0	29.0	89	26.2	0	0	---	0.00	30.259 
05:00	29.0	29.0	29.0	89	26.2	0	0	---	0.00	30.262 
05:05	29.0	29.0	29.0	89	26.2	0	0	---	0.00	30.262 
05:10	29.0	29.0	29.0	89	26.2	0	0	---	0.00	30.262 
05:15	29.0	29.0	29.0	89	26.2	0	0	---	0.00	30.262 
05:20	28.8	28.8	28.8	90	26.2	0	0	---	0.00	30.262 
05:25	28.8	28.8	28.8	90	26.2	0	0	---	0.00	30.262 
05:30	28.7	28.7	28.7	90	26.1	0	0	---	0.00	30.263 
05:35	28.7	28.7	28.7	90	26.1	0	0	---	0.00	30.263 
05:40	28.8	28.8	28.8	90	26.2	0	0	---	0.00	30.263 
05:45	28.8	28.8	28.8	90	26.2	0	0	---	0.00	30.266 
05:50	28.7	28.7	28.7	90	26.1	0	0	---	0.00	30.266 
05:55	28.7	28.7	28.7	90	26.1	0	0	---	0.00	30.266 
06:00	28.7	28.7	28.7	90	26.1	0	0	---	0.00	30.268 
06:05	28.5	28.5	28.5	90	25.9	0	0	---	0.00	30.268 
06:10	28.5	28.5	28.5	90	25.9	0	0	---	0.00	30.268 
06:15	28.4	28.4	28.4	90	25.8	0	0	---	0.00	30.267 
06:20	28.4	28.4	28.4	90	25.8	0	0	---	0.00	30.267 
06:25	28.4	28.4	28.4	91	26.1	0	0	---	0.00	30.267 
06:30	28.5	28.5	28.5	91	26.2	0	0	---	0.00	30.273 
06:35	28.5	28.5	28.5	91	26.2	0	0	---	0.00	30.273 
06:40	28.5	28.5	28.5	91	26.2	0	0	---	0.00	30.273 
06:45	28.4	28.4	28.4	91	26.1	0	0	---	0.00	30.274 
06:50	28.5	28.5	28.5	91	26.2	0	0	---	0.00	30.274 
06:55	28.7	28.7	28.7	91	26.4	0	0	---	0.00	30.274 
07:00	28.8	28.8	28.8	91	26.5	0	0	---	0.00	30.277 
07:05	28.8	28.8	28.8	91	26.5	0	0	---	0.00	30.277 
07:10	29.0	29.0	29.0	91	26.7	0	0	---	0.00	30.277 
07:15	29.0	29.0	29.0	91	26.7	0	0	---	0.00	30.281 
07:20	29.0	29.0	29.0	91	26.7	0	0	---	0.00	30.281 
07:25	29.0	29.0	29.0	91	26.7	0	0	---	0.00	30.281 
07:30	29.0	29.0	29.0	92	27.0	0	0	---	0.00	30.284 
07:35	29.1	29.1	29.1	92	27.1	0	0	---	0.00	30.284 
07:40	29.3	29.3	29.3	92	27.3	0	0	---	0.00	30.284 
07:45	29.4	29.4	29.4	92	27.4	0	0	---	0.00	30.287 
07:50	29.5	29.5	29.5	92	27.5	0	0	---	0.00	30.287 
07:55	30.0	30.0	30.0	92	28.0	0	0	---	0.00	30.287 
08:00	30.4	30.4	30.4	92	28.4	0	0	---	0.00	30.296 
08:05	31.0	31.0	31.0	92	29.0	0	0	---	0.00	30.296 
08:10	31.8	31.8	31.8	94	30.3	0	0	---	0.00	30.296 
08:15	32.8	32.8	32.8	94	31.3	0	0	---	0.00	30.302 
08:20	34.1	34.1	34.1	93	32.3	0	1	180	0.00	30.302 
08:25	35.5	35.5	35.5	92	33.4	0	1	180	0.00	30.302 
08:30	37.0	37.0	37.0	86	33.2	0	1	180	0.00	30.305 
08:35	38.3	38.3	38.3	81	33.0	0	1	180	0.00	30.305 
08:40	39.6	39.6	39.6	75	32.3	0	1	180	0.00	30.305 
08:45	40.6	40.6	40.6	71	31.9	0	1	180	0.00	30.311 
08:50	41.6	41.6	41.6	66	31.1	0	2	112	0.00	30.311 
08:55	42.5	42.5	42.5	61	30.0	1	3	112	0.00	30.311 
09:00	43.2	43.2	43.2	59	29.9	1	4	112	0.00	30.314 
09:05	43.9	43.9	43.9	60	30.9	1	4	90	0.00	30.314 
09:10	44.5	44.5	44.5	59	31.1	0	1	90	0.00	30.314 
09:15	45.1	45.1	45.1	57	30.8	1	3	90	0.00	30.319 
09:20	45.7	45.7	45.7	57	31.3	1	3	112	0.00	30.319 
09:25	46.4	46.4	46.4	56	31.6	0	3	112	0.00	30.319 
09:30	47.0	47.0	47.0	55	31.7	1	4	270	0.00	30.318 
09:35	47.6	47.6	47.6	56	32.7	1	3	90	0.00	30.318 
09:40	48.2	48.2	48.2	54	32.3	1	4	292	0.00	30.318 
09:45	48.8	48.8	48.8	51	31.5	2	4	45	0.00	30.317 
09:50	49.2	49.2	49.2	52	32.3	0	2	90	0.00	30.317 
09:55	49.9	49.9	49.9	53	33.5	0	2	90	0.00	30.317 
10:00	50.5	50.5	50.5	50	32.6	1	4	90	0.00	30.313 
10:05	51.1	51.1	51.1	49	32.6	1	4	90	0.00	30.313 
10:10	51.6	51.6	51.6	51	34.1	1	3	248	0.00	30.313 
10:15	51.9	51.9	51.9	50	33.9	1	4	202	0.00	30.313 
10:20	52.5	52.5	52.5	50	34.4	1	3	68	0.00	30.313 
10:25	53.2	53.2	53.2	49	34.5	1	3	68	0.00	30.313 
10:30	53.5	53.5	53.5	47	33.8	1	4	225	0.00	30.312 
10:35	53.8	53.8	53.8	49	35.1	1	4	112	0.00	30.312 
10:40	53.9	53.9	53.9	47	34.1	2	6	248	0.00	30.312 
10:45	54.1	54.1	54.1	49	35.4	1	4	248	0.00	30.307 
10:50	54.4	54.4	54.4	48	35.1	2	7	248	0.00	30.307 
10:55	55.0	55.0	55.0	47	35.1	1	6	90	0.00	30.307 
11:00	55.4	55.4	55.4	46	35.0	1	5	248	0.00	30.300 
11:05	55.9	55.9	55.9	46	35.4	1	4	90	0.00	30.300 
11:10	56.3	56.3	56.3	46	35.8	2	5	90	0.00	30.300 
11:15	56.7	56.7	56.7	46	36.2	1	6	45	0.00	30.302 
11:20	56.7	56.7	56.7	43	34.5	2	6	248	0.00	30.302 
11:25	57.5	57.5	57.5	46	36.9	1	3	68	0.00	30.302 
11:30	58.6	58.6	58.6	48	39.0	0	2	68	0.00	30.298 
11:35	58.6	58.6	58.6	42	35.6	2	6	248	0.00	30.298 
11:40	58.4	58.4	58.4	42	35.4	2	7	248	0.00	30.298 
11:45	58.6	58.6	58.6	45	37.3	2	9	270	0.00	30.295 
11:50	58.6	58.6	58.6	42	35.6	3	6	248	0.00	30.295 
11:55	59.0	59.0	59.0	44	37.1	1	4	248	0.00	30.295 
12:00	59.9	59.9	59.9	44	37.9	1	4	248	0.00	30.284 
12:05	60.1	60.1	60.1	39	35.1	4	10	248	0.00	30.284 
12:10	60.1	60.1	60.1	41	36.3	3	6	248	0.00	30.284 
12:15	60.5	60.5	60.5	40	36.1	3	7	270	0.00	30.282 
12:20	60.9	60.9	60.9	43	38.3	2	7	248	0.00	30.282 
12:25	61.3	61.3	61.3	43	38.6	3	7	248	0.00	30.282 
12:30	62.0	62.0	62.0	42	38.6	2	6	112	0.00	30.276 
12:35	62.1	62.1	62.1	39	36.8	2	6	248	0.00	30.276 
12:40	62.9	62.9	62.9	40	38.2	2	5	270	0.00	30.276 
12:45	63.1	63.1	63.1	39	37.7	3	9	248	0.00	30.269 
12:50	63.2	63.2	63.2	37	36.5	3	7	248	0.00	30.269 
12:55	63.7	63.7	63.7	42	40.2	2	6	248	0.00	30.269 
13:00	64.2	64.2	64.2	39	38.7	3	6	248	0.00	30.260 
13:05	64.5	64.5	64.5	39	39.0	2	5	248	0.00	30.260 
13:10	64.5	64.5	64.5	39	39.0	3	11	248	0.00	30.260 
13:15	64.8	64.8	64.8	38	38.6	2	6	248	0.00	30.256 
13:20	65.3	65.3	65.3	37	38.4	2	10	270	0.00	30.256 
13:25	65.5	65.5	65.5	35	37.1	3	11	248	0.00	30.256 
13:30	65.5	65.5	65.5	35	37.1	4	7	270	0.00	30.243 
13:35	65.6	65.6	65.6	37	38.6	4	12	270	0.00	30.243 
13:40	65.8	65.8	65.8	35	37.4	4	11	248	0.00	30.243 
13:45	65.8	65.8	65.8	35	37.4	5	12	248	0.00	30.235 
13:50	66.1	66.1	66.1	37	39.1	3	11	225	0.00	30.235 
13:55	66.4	66.4	66.4	35	37.9	4	8	270	0.00	30.235 
14:00	66.6	66.6	66.6	37	39.5	3	10	225	0.00	30.228 
14:05	66.8	66.8	66.8	35	38.3	4	12	248	0.00	30.228 
14:10	67.1	67.1	67.1	36	39.2	3	10	248	0.00	30.228 
14:15	67.3	67.3	67.3	33	37.2	4	12	248	0.00	30.228 
14:20	67.4	67.4	67.4	35	38.8	4	7	248	0.00	30.228 
14:25	67.9	67.9	67.9	38	41.3	3	9	248	0.00	30.228 
14:30	68.1	68.1	68.1	35	39.4	3	11	248	0.00	30.216 
14:35	68.3	68.3	68.3	34	38.8	3	9	248	0.00	30.216 
14:40	68.4	68.4	68.4	34	38.9	4	12	248	0.00	30.216 
14:45	68.6	68.6	68.6	34	39.1	4	10	248	0.00	30.214 
14:50	68.6	68.6	68.6	35	39.8	4	10	248	0.00	30.214 
14:55	68.8	68.8	68.8	36	40.7	4	11	270	0.00	30.214 
15:00	68.6	68.6	68.6	33	38.3	5	12	248	0.00	30.212 
15:05	68.6	68.6	68.6	34	39.1	4	11	248	0.00	30.212 
15:10	69.1	69.1	69.1	32	38.0	4	12	248	0.00	30.212 
15:15	69.3	69.3	69.3	33	39.0	4	9	248	0.00	30.207 
15:20	69.3	69.3	69.3	33	39.0	4	13	248	0.00	30.207 
15:25	69.1	69.1	69.1	35	40.3	4	9	248	0.00	30.207 
15:30	69.1	69.1	69.1	33	38.8	4	11	248	0.00	30.201 
15:35	69.3	69.3	69.3	35	40.5	4	10	248	0.00	30.201 
15:40	69.8	69.8	69.8	36	41.6	3	12	270	0.00	30.201 
15:45	69.8	69.8	69.8	34	40.2	4	10	248	0.00	30.194 
15:50	69.9	69.9	69.9	34	40.2	4	13	248	0.00	30.194 
15:55	69.8	69.8	69.8	32	38.6	4	10	248	0.00	30.194 
16:00	70.1	70.1	70.1	33	39.7	3	9	270	0.00	30.188 
16:05	70.3	70.3	70.3	32	39.0	3	7	248	0.00	30.188 
16:10	70.4	70.4	70.4	31	38.3	4	11	248	0.00	30.188 
16:15	70.4	70.4	70.4	32	39.1	4	12	248	0.00	30.185 
16:20	70.3	70.3	70.3	33	39.8	4	10	248	0.00	30.185 
16:25	70.3	70.3	70.3	31	38.2	4	9	248	0.00	30.185 
16:30	70.1	70.1	70.1	31	38.1	5	13	270	0.00	30.181 
16:35	70.3	70.3	70.3	33	39.8	3	5	248	0.00	30.181 
16:40	70.6	70.6	70.6	35	41.6	2	6	225	0.00	30.181 
16:45	70.6	70.6	70.6	33	40.1	3	8	270	0.00	30.168 
16:50	70.8	70.8	70.8	30	37.8	3	9	270	0.00	30.168 
16:55	70.9	70.9	70.9	31	38.7	2	7	248	0.00	30.168 
17:00	70.8	70.8	70.8	31	38.7	3	8	225	0.00	30.166 
17:05	70.6	70.6	70.6	32	39.3	4	13	248	0.00	30.166 
17:10	70.6	70.6	70.6	30	37.6	3	7	248	0.00	30.166 
17:15	70.8	70.8	70.8	29	37.0	3	10	248	0.00	30.163 
17:20	70.8	70.8	70.8	30	37.8	3	9	248	0.00	30.163 
17:25	70.4	70.4	70.4	30	37.5	4	10	248	0.00	30.163 
17:30	70.3	70.3	70.3	30	37.4	4	13	248	0.00	30.161 
17:35	70.4	70.4	70.4	29	36.6	4	12	248	0.00	30.161 
17:40	70.4	70.4	70.4	30	37.5	4	9	248	0.00	30.161 
17:45	70.4	70.4	70.4	30	37.5	3	9	248	0.00	30.164 
17:50	70.4	70.4	70.4	30	37.5	3	6	248	0.00	30.164 
17:55	70.3	70.3	70.3	31	38.2	3	9	248	0.00	30.164 
18:00	70.3	70.3	70.3	30	37.4	3	8	248	0.00	30.162 
18:05	70.1	70.1	70.1	30	37.2	4	13	248	0.00	30.162 
18:10	69.9	69.9	69.9	31	37.9	4	12	248	0.00	30.162 
18:15	69.8	69.8	69.8	31	37.8	4	11	270	0.00	30.165 
18:20	69.6	69.6	69.6	31	37.6	3	8	248	0.00	30.165 
18:25	69.6	69.6	69.6	31	37.6	2	9	248	0.00	30.165 
18:30	69.6	69.6	69.6	31	37.6	3	7	248	0.00	30.172 
18:35	69.8	69.8	69.8	30	37.0	3	11	248	0.00	30.172 
18:40	69.6	69.6	69.6	31	37.6	2	5	248	0.00	30.172 
18:45	69.6	69.6	69.6	31	37.6	2	6	248	0.00	30.179 
18:50	69.4	69.4	69.4	31	37.4	2	6	248	0.00	30.179 
18:55	69.3	69.3	69.3	30	36.5	3	10	248	0.00	30.179 
19:00	69.3	69.3	69.3	31	37.4	2	7	248	0.00	30.181 
19:05	69.1	69.1	69.1	31	37.2	2	6	225	0.00	30.181 
19:10	69.1	69.1	69.1	31	37.2	2	5	248	0.00	30.181 
19:15	68.9	68.9	68.9	31	37.0	2	6	248	0.00	30.185 
19:20	68.6	68.6	68.6	32	37.6	3	9	248	0.00	30.185 
19:25	68.4	68.4	68.4	32	37.4	2	5	225	0.00	30.185 
19:30	68.3	68.3	68.3	33	38.1	1	5	248	0.00	30.184 
19:35	68.1	68.1	68.1	34	38.7	1	4	248	0.00	30.184 
19:40	67.8	67.8	67.8	33	37.6	1	3	248	0.00	30.184 
19:45	67.6	67.6	67.6	33	37.5	2	5	248	0.00	30.184 
19:50	67.4	67.4	67.4	34	38.1	1	4	248	0.00	30.184 
19:55	67.3	67.3	67.3	34	38.0	1	4	248	0.00	30.184 
20:00	66.9	66.9	66.9	35	38.4	1	3	248	0.00	30.184 
20:05	66.8	66.8	66.8	35	38.3	2	7	248	0.00	30.184 
20:10	66.4	66.4	66.4	36	38.6	1	3	248	0.00	30.184 
20:15	66.1	66.1	66.1	37	39.1	1	4	248	0.00	30.177 
20:20	65.6	65.6	65.6	37	38.6	1	3	248	0.00	30.177 
20:25	65.5	65.5	65.5	37	38.5	1	3	270	0.00	30.177 
20:30	65.3	65.3	65.3	38	39.0	1	2	248	0.00	30.179 
20:35	64.8	64.8	64.8	39	39.3	0	2	248	0.00	30.179 
20:40	64.5	64.5	64.5	39	39.0	0	4	248	0.00	30.179 
20:45	64.3	64.3	64.3	39	38.8	1	4	248	0.00	30.182 
20:50	64.2	64.2	64.2	40	39.4	1	3	248	0.00	30.182 
20:55	64.0	64.0	64.0	40	39.2	1	5	248	0.00	30.182 
21:00	64.0	64.0	64.0	40	39.2	1	3	248	0.00	30.184 
21:05	64.0	64.0	64.0	40	39.2	1	4	248	0.00	30.184 
21:10	63.9	63.9	63.9	40	39.1	1	6	248	0.00	30.184 
21:15	63.9	63.9	63.9	40	39.1	1	4	248	0.00	30.183 
21:20	63.7	63.7	63.7	41	39.6	1	4	248	0.00	30.183 
21:25	63.4	63.4	63.4	41	39.3	1	3	248	0.00	30.183 
21:30	63.2	63.2	63.2	43	40.3	0	2	248	0.00	30.186 
21:35	63.1	63.1	63.1	42	39.6	1	4	248	0.00	30.186 
21:40	62.7	62.7	62.7	43	39.9	1	3	248	0.00	30.186 
21:45	62.4	62.4	62.4	43	39.6	1	3	248	0.00	30.188 
21:50	62.4	62.4	62.4	43	39.6	0	4	248	0.00	30.188 
21:55	62.4	62.4	62.4	43	39.6	1	5	270	0.00	30.188 
22:00	62.4	62.4	62.4	44	40.2	1	4	248	0.00	30.193 
22:05	62.3	62.3	62.3	44	40.1	1	4	225	0.00	30.193 
22:10	62.1	62.1	62.1	44	39.9	1	4	292	0.00	30.193 
22:15	62.1	62.1	62.1	44	39.9	1	6	248	0.00	30.194 
22:20	62.0	62.0	62.0	44	39.8	1	3	248	0.00	30.194 
22:25	61.8	61.8	61.8	45	40.2	1	5	225	0.00	30.194 
22:30	61.8	61.8	61.8	46	40.8	1	6	270	0.00	30.196 
22:35	61.6	61.6	61.6	45	40.0	1	3	248	0.00	30.196 
22:40	61.6	61.6	61.6	45	40.0	1	6	248	0.00	30.196 
22:45	61.5	61.5	61.5	46	40.5	1	3	248	0.00	30.197 
22:50	61.2	61.2	61.2	46	40.3	0	3	270	0.00	30.197 
22:55	61.2	61.2	61.2	46	40.3	2	4	270	0.00	30.197 
23:00	61.0	61.0	61.0	46	40.1	1	3	225	0.00	30.197 
23:05	61.2	61.2	61.2	46	40.3	2	5	248	0.00	30.197 
23:10	61.0	61.0	61.0	46	40.1	1	6	248	0.00	30.197 
23:15	61.0	61.0	61.0	47	40.6	1	6	248	0.00	30.193 
23:20	60.7	60.7	60.7	47	40.3	1	5	248	0.00	30.193 
23:25	60.7	60.7	60.7	47	40.3	2	8	248	0.00	30.193 
23:30	60.5	60.5	60.5	48	40.7	1	6	248	0.00	30.192 
23:35	60.5	60.5	60.5	48	40.7	1	6	248	0.00	30.192 
23:40	60.2	60.2	60.2	48	40.4	2	4	248	0.00	30.192 
23:45	60.2	60.2	60.2	49	41.0	1	6	248	0.00	30.191 
23:50	59.9	59.9	59.9	49	40.7	1	4	248	0.00	30.191 
23:55	59.8	59.8	59.8	50	41.1	2	5	248	0.00	30.191 

CoCoRaHS
IN-AL-39
A2 Web Hosting
Creative Commons License
GoDaddy
search engine by freefind advanced

loaded 2018-11-15 16:24:59 • last modified 2010-11-18 10:43:29
Privacy PolicyDisclaimer
• wx.awcolley.com is powered by PmWiki v.2002016 •
• all content (unless otherwise noted) © 2018 A W Colley